Time;durP1;ratioP1;P1;durP2;ratioP2;P2;SDS_P1;SDS_P2;PMS_P1;PMS_P2;Temp;Humidity;BMP_temperature;BMP_pressure;BME280_temperature;BME280_humidity;BME280_pressure;Samples;Min_cycle;Max_cycle;Signal;HPM_P1;HPM_P2
2023/09/05 00:02:18;;;;;;;14.30;7.10;;;;;;;17.23;55.00;101288.83;108262;1253;73837;-75
2023/09/05 00:04:54;;;;;;;10.20;6.90;;;;;;;17.20;55.06;101290.20;108252;1253;72552;-74
2023/09/05 00:07:27;;;;;;;15.30;9.00;;;;;;;17.17;55.18;101287.42;108499;1253;71447;-73
2023/09/05 00:09:58;;;;;;;16.20;10.40;;;;;;;17.14;55.25;101291.17;108077;1255;61963;-75
2023/09/05 00:12:27;;;;;;;16.80;9.10;;;;;;;17.11;55.19;101291.36;108426;1253;60204;-74
2023/09/05 00:14:55;;;;;;;13.70;8.00;;;;;;;17.08;55.26;101289.66;108111;1253;72585;-73
2023/09/05 00:17:27;;;;;;;10.20;6.10;;;;;;;17.06;55.27;101287.72;108193;1252;72681;-73
2023/09/05 00:19:55;;;;;;;9.50;5.40;;;;;;;17.04;55.40;101290.27;108108;1253;71302;-73
2023/09/05 00:22:25;;;;;;;9.30;5.80;;;;;;;17.02;55.37;101293.00;108177;1253;60442;-73
2023/09/05 00:24:53;;;;;;;10.90;5.40;;;;;;;17.00;55.48;101294.15;108023;1256;61825;-73
2023/09/05 00:27:26;;;;;;;9.00;5.00;;;;;;;16.98;55.64;101296.48;108016;1253;73845;-74
2023/09/05 00:30:02;;;;;;;9.50;5.40;;;;;;;16.96;55.65;101292.13;108851;1253;72458;-74
2023/09/05 00:32:36;;;;;;;9.80;5.40;;;;;;;16.95;55.82;101292.39;108343;1252;72517;-74
2023/09/05 00:35:07;;;;;;;11.80;5.70;;;;;;;16.94;55.92;101290.26;108236;1256;60533;-73
2023/09/05 00:37:34;;;;;;;7.90;5.10;;;;;;;16.92;55.94;101290.80;108144;1256;59365;-71
2023/09/05 00:40:05;;;;;;;9.60;5.10;;;;;;;16.90;55.87;101293.41;108013;1259;74310;-72
2023/09/05 00:42:37;;;;;;;8.70;5.30;;;;;;;16.88;55.82;101296.62;108374;1254;71472;-72
2023/09/05 00:45:15;;;;;;;9.00;5.00;;;;;;;16.87;55.78;101298.98;108467;1256;71440;-70
2023/09/05 00:47:47;;;;;;;8.30;5.40;;;;;;;16.86;55.75;101304.93;108397;1255;61994;-71
2023/09/05 00:50:18;;;;;;;12.00;6.10;;;;;;;16.85;55.79;101304.99;108430;1253;61163;-71
2023/09/05 00:52:48;;;;;;;12.10;5.80;;;;;;;16.84;55.74;101303.85;108450;1254;73077;-73
2023/09/05 00:55:28;;;;;;;8.90;5.10;;;;;;;16.83;55.75;101305.65;108358;1256;72755;-74
2023/09/05 00:58:03;;;;;;;7.70;4.90;;;;;;;16.80;55.77;101309.08;108265;1254;71257;-73
2023/09/05 01:00:37;;;;;;;7.80;4.70;;;;;;;16.77;55.96;101307.09;108129;1252;60450;-72
2023/09/05 01:03:06;;;;;;;7.50;4.80;;;;;;;16.74;55.99;101308.17;108489;1251;60376;-74
2023/09/05 01:05:36;;;;;;;6.70;4.40;;;;;;;16.71;56.10;101307.92;108453;1252;73707;-73
2023/09/05 01:08:26;;;;;;;6.50;4.60;;;;;;;16.68;56.22;101310.63;108359;1254;71620;-73
2023/09/05 01:11:00;;;;;;;8.00;4.30;;;;;;;16.64;56.36;101312.44;108461;1253;71424;-72
2023/09/05 01:13:33;;;;;;;7.10;4.40;;;;;;;16.64;56.39;101315.23;108333;1256;59550;-73
2023/09/05 01:16:08;;;;;;;6.50;3.70;;;;;;;16.63;56.37;101317.39;108403;1255;60306;-74
2023/09/05 01:18:39;;;;;;;6.90;3.80;;;;;;;16.64;56.28;101318.73;108322;1252;72778;-74
2023/09/05 01:21:40;;;;;;;6.70;4.10;;;;;;;16.64;56.20;101319.94;108299;1257;71254;-74
2023/09/05 01:24:21;;;;;;;8.60;4.10;;;;;;;16.62;56.21;101321.73;108358;1251;71316;-73
2023/09/05 01:26:52;;;;;;;7.40;4.00;;;;;;;16.59;56.27;101325.36;108409;1251;61788;-74
2023/09/05 01:29:29;;;;;;;;;;;;;;;16.57;56.26;101326.39;108435;1256;60508;-73
2023/09/05 01:32:02;;;;;;;5.90;3.90;;;;;;;16.54;56.26;101326.95;108405;1255;71431;-74
2023/09/05 01:34:32;;;;;;;6.40;4.10;;;;;;;16.53;56.26;101329.60;108395;1251;71584;-73
2023/09/05 01:37:01;;;;;;;7.80;4.10;;;;;;;16.52;56.24;101327.33;108127;1254;72648;-72
2023/09/05 01:39:33;;;;;;;6.20;4.00;;;;;;;16.50;56.33;101327.23;108369;1253;60757;-73
2023/09/05 01:42:14;;;;;;;7.40;3.80;;;;;;;16.49;56.42;101329.24;108345;1255;60556;-73
2023/09/05 01:45:01;;;;;;;6.50;3.90;;;;;;;16.47;56.42;101324.02;108346;1251;73607;-74
2023/09/05 01:48:02;;;;;;;7.70;4.20;;;;;;;16.46;56.61;101318.70;108398;1252;72603;-73
2023/09/05 01:50:51;;;;;;;6.80;4.30;;;;;;;16.45;56.71;101324.98;108265;1256;72536;-73
2023/09/05 01:53:33;;;;;;;6.80;4.00;;;;;;;16.43;56.77;101327.77;108425;1252;61873;-73
2023/09/05 01:56:30;;;;;;;8.10;4.60;;;;;;;16.41;56.86;101326.20;108308;1257;60429;-74
2023/09/05 01:59:19;;;;;;;7.30;4.00;;;;;;;16.39;56.87;101322.55;108347;1251;71963;-73
2023/09/05 02:02:20;;;;;;;10.30;4.20;;;;;;;16.37;57.02;101321.53;108348;1254;71292;-73
2023/09/05 02:05:08;;;;;;;6.20;3.50;;;;;;;16.35;56.98;101324.40;108302;1251;73866;-73
2023/09/05 02:07:39;;;;;;;7.30;3.70;;;;;;;16.33;56.93;101324.84;108341;1254;60351;-73
2023/09/05 02:10:29;;;;;;;6.90;3.90;;;;;;;16.29;56.85;101324.06;108245;1254;60119;-73
2023/09/05 02:13:10;;;;;;;7.30;4.40;;;;;;;16.27;56.87;101318.89;108392;1251;72647;-73
2023/09/05 02:15:45;;;;;;;6.80;3.90;;;;;;;16.24;56.90;101318.30;108240;1254;73082;-73
2023/09/05 02:18:27;;;;;;;7.40;4.10;;;;;;;16.21;56.94;101319.88;108271;1252;71294;-74
2023/09/05 02:21:06;;;;;;;6.80;3.70;;;;;;;16.17;56.97;101322.53;108381;1251;62746;-73
2023/09/05 02:23:46;;;;;;;6.00;3.90;;;;;;;16.16;57.07;101320.60;108387;1251;60319;-73
2023/09/05 02:26:32;;;;;;;7.30;3.90;;;;;;;16.15;57.32;101327.39;108310;1257;73648;-74
2023/09/05 02:29:13;;;;;;;7.70;4.10;;;;;;;16.14;57.36;101329.23;108422;1254;70600;-74
2023/09/05 02:31:52;;;;;;;7.20;3.80;;;;;;;16.13;57.35;101330.42;108361;1254;71179;-73
2023/09/05 02:34:34;;;;;;;5.90;3.70;;;;;;;16.12;57.46;101333.81;108332;1251;60494;-73
2023/09/05 02:37:25;;;;;;;7.60;3.70;;;;;;;16.11;57.47;101338.08;108387;1256;60415;-73
2023/09/05 02:39:58;;;;;;;;;;;;;;;16.09;57.56;101334.52;108389;1253;72523;-73
2023/09/05 02:42:29;;;;;;;5.90;3.40;;;;;;;16.06;57.76;101338.91;108340;1251;71423;-72
2023/09/05 02:45:02;;;;;;;6.50;3.50;;;;;;;16.05;57.75;101344.55;108369;1256;72661;-73
2023/09/05 02:47:34;;;;;;;6.70;3.90;;;;;;;16.03;57.79;101343.77;108512;1251;60392;-72
2023/09/05 02:50:09;;;;;;;7.60;3.50;;;;;;;16.01;57.88;101343.76;108368;1251;61814;-73
2023/09/05 02:52:45;;;;;;;6.80;3.60;;;;;;;15.99;57.98;101342.27;108199;1254;73662;-73
2023/09/05 02:55:16;;;;;;;8.00;3.80;;;;;;;15.97;57.99;101345.08;108418;1252;71263;-73
2023/09/05 02:57:47;;;;;;;6.30;3.90;;;;;;;15.94;58.07;101340.98;108428;1251;72569;-73
2023/09/05 03:00:27;;;;;;;8.00;3.80;;;;;;;15.93;58.14;101340.83;108319;1254;63305;-73
2023/09/05 03:03:00;;;;;;;7.30;3.60;;;;;;;15.93;58.29;101343.40;108409;1251;60411;-73
2023/09/05 03:05:46;;;;;;;6.70;3.50;;;;;;;15.90;58.29;101346.66;108393;1251;72333;-73
2023/09/05 03:08:27;;;;;;;6.30;3.10;;;;;;;15.89;58.29;101350.48;108273;1251;71347;-73
2023/09/05 03:10:58;;;;;;;6.10;3.70;;;;;;;15.85;58.37;101351.09;108315;1251;71176;-73
2023/09/05 03:13:36;;;;;;;6.10;3.50;;;;;;;15.83;58.38;101352.16;108402;1255;60794;-72
2023/09/05 03:16:07;;;;;;;7.80;3.70;;;;;;;15.80;58.52;101351.09;108351;1251;60312;-73
2023/09/05 03:18:45;;;;;;;5.40;3.70;;;;;;;15.77;58.56;101355.31;108365;1254;72346;-73
2023/09/05 03:21:19;;;;;;;6.10;3.50;;;;;;;15.73;58.80;101355.48;108176;1253;71372;-73
2023/09/05 03:24:02;;;;;;;7.30;4.00;;;;;;;15.71;58.84;101360.21;108403;1251;72548;-73
2023/09/05 03:26:37;;;;;;;5.20;3.30;;;;;;;15.71;58.99;101363.29;108427;1251;61764;-72
2023/09/05 03:29:06;;;;;;;6.40;3.40;;;;;;;15.71;58.96;101367.48;108371;1251;60343;-73
2023/09/05 03:31:51;;;;;;;6.20;4.00;;;;;;;15.69;58.97;101369.70;108413;1254;72412;-73
2023/09/05 03:34:21;;;;;;;7.40;3.70;;;;;;;15.69;58.90;101376.75;108249;1251;71548;-73
2023/09/05 03:36:51;;;;;;;5.00;3.40;;;;;;;15.68;58.80;101377.94;108405;1251;71124;-73
2023/09/05 03:39:22;;;;;;;5.60;3.30;;;;;;;15.68;58.82;101377.02;108256;1251;61142;-73
2023/09/05 03:42:03;;;;;;;6.00;3.40;;;;;;;15.68;58.80;101377.17;108325;1251;60551;-76
2023/09/05 03:44:51;;;;;;;9.60;3.80;;;;;;;15.68;58.86;101375.73;108350;1251;72387;-75
2023/09/05 03:47:28;;;;;;;8.90;3.70;;;;;;;15.68;58.91;101375.79;108515;1251;71529;-74
2023/09/05 03:49:56;;;;;;;7.10;3.40;;;;;;;15.68;58.94;101374.27;108336;1251;71794;-73
2023/09/05 03:52:34;;;;;;;5.50;3.30;;;;;;;15.69;58.94;101375.20;108392;1251;62800;-75
2023/09/05 03:55:08;;;;;;;5.60;3.40;;;;;;;15.71;58.71;101376.36;108476;1251;61284;-76
2023/09/05 03:57:43;;;;;;;5.70;3.50;;;;;;;15.73;58.70;101376.69;108377;1251;73727;-72
2023/09/05 04:00:20;;;;;;;6.20;3.30;;;;;;;15.75;58.69;101380.83;108391;1251;72847;-72
2023/09/05 04:02:49;;;;;;;5.90;3.50;;;;;;;15.75;58.72;101384.55;108400;1251;73361;-71
2023/09/05 04:05:34;;;;;;;6.10;3.70;;;;;;;15.77;58.73;101389.24;108485;1251;60395;-72
2023/09/05 04:08:01;;;;;;;5.50;3.50;;;;;;;15.78;58.69;101387.72;108460;1251;60527;-73
2023/09/05 04:10:30;;;;;;;5.90;3.60;;;;;;;15.80;58.73;101390.90;108253;1251;76136;-74
2023/09/05 04:12:57;;;;;;;6.60;3.50;;;;;;;15.83;58.68;101395.70;108323;1252;73464;-74
2023/09/05 04:15:25;;;;;;;6.70;3.50;;;;;;;15.85;58.72;101395.48;108347;1256;71055;-73
2023/09/05 04:17:51;;;;;;;7.30;3.60;;;;;;;15.87;58.66;101396.92;108359;1251;61014;-73
2023/09/05 04:20:18;;;;;;;5.80;3.60;;;;;;;15.91;58.72;101397.40;108297;1254;60435;-73
2023/09/05 04:22:45;;;;;;;6.50;3.60;;;;;;;15.95;58.65;101398.27;108165;1251;72442;-74
2023/09/05 04:25:14;;;;;;;6.70;3.90;;;;;;;16.00;58.63;101400.89;108235;1254;72712;-73
2023/09/05 04:27:45;;;;;;;6.60;3.60;;;;;;;16.05;58.52;101402.08;108264;1254;72496;-73
2023/09/05 04:30:13;;;;;;;6.00;3.60;;;;;;;16.09;58.35;101405.95;108041;1251;60753;-73
2023/09/05 04:32:42;;;;;;;6.40;3.50;;;;;;;16.13;58.11;101404.52;108255;1251;60329;-74
2023/09/05 04:35:10;;;;;;;7.10;3.80;;;;;;;16.18;58.04;101402.42;108251;1251;72356;-74
2023/09/05 04:37:37;;;;;;;5.80;3.30;;;;;;;16.25;57.94;101401.16;108239;1251;72767;-74
2023/09/05 04:40:07;;;;;;;6.20;3.60;;;;;;;16.32;57.74;101398.28;108290;1251;72781;-74
2023/09/05 04:42:35;;;;;;;6.10;3.80;;;;;;;16.39;57.71;101400.14;108164;1252;60479;-74
2023/09/05 04:45:02;;;;;;;6.90;3.70;;;;;;;16.46;57.56;101398.50;108301;1251;60461;-73
2023/09/05 04:47:34;;;;;;;6.90;4.10;;;;;;;16.51;57.37;101395.46;108299;1251;73707;-73
2023/09/05 06:47:36;;;;;;;7.10;3.10;;;;;;;21.49;45.42;101376.02;108270;1251;73339;-74
2023/09/05 08:08:34;;;;;;;3.90;2.20;;;;;;;23.93;37.12;101362.52;108142;1251;59612;-72
2023/09/05 08:11:17;;;;;;;4.10;1.90;;;;;;;24.01;37.24;101360.05;108044;1256;74017;-74
2023/09/05 08:13:44;;;;;;;4.90;2.20;;;;;;;24.08;36.67;101359.95;108053;1256;70907;-73
2023/09/05 08:16:11;;;;;;;4.50;1.90;;;;;;;24.09;36.50;101360.06;107974;1256;72514;-74
2023/09/05 08:18:38;;;;;;;3.10;1.90;;;;;;;24.07;35.84;101358.64;107952;1256;61019;-73
2023/09/05 08:21:05;;;;;;;3.70;2.00;;;;;;;24.03;35.72;101357.02;107962;1255;60384;-73
2023/09/05 08:23:34;;;;;;;4.90;2.50;;;;;;;24.03;36.45;101358.89;107925;1259;72911;-74
2023/09/05 08:26:01;;;;;;;4.90;2.80;;;;;;;24.09;37.19;101357.96;108073;1256;71971;-74
2023/09/05 08:28:32;;;;;;;4.50;2.00;;;;;;;24.27;37.04;101359.81;107991;1256;71604;-74
2023/09/05 08:30:59;;;;;;;4.90;2.20;;;;;;;24.37;36.95;101357.02;107964;1255;60932;-73
2023/09/05 08:33:43;;;;;;;4.70;2.10;;;;;;;24.58;36.04;101361.90;107965;1255;60401;-74
2023/09/05 08:36:10;;;;;;;3.40;2.20;;;;;;;24.65;35.48;101359.14;108244;1251;73880;-74
2023/09/05 08:38:37;;;;;;;3.60;2.10;;;;;;;24.60;35.38;101351.20;108567;1253;72551;-74
2023/09/05 08:41:08;;;;;;;4.30;2.40;;;;;;;24.57;35.18;101354.13;108260;1252;72548;-73
2023/09/05 08:43:35;;;;;;;4.00;2.30;;;;;;;24.55;35.33;101360.38;108254;1251;60266;-74
2023/09/05 08:46:04;;;;;;;3.90;2.20;;;;;;;24.55;34.60;101355.80;108308;1251;60164;-74
2023/09/05 08:48:32;;;;;;;4.00;2.00;;;;;;;24.53;35.12;101352.83;108344;1251;72471;-74
2023/09/05 08:51:20;;;;;;;5.20;2.40;;;;;;;24.62;35.29;101352.73;108289;1251;72787;-74
2023/09/05 08:53:56;;;;;;;2.90;1.80;;;;;;;24.63;35.29;101351.09;108164;1254;72602;-74
2023/09/05 08:56:24;;;;;;;3.90;2.10;;;;;;;24.72;35.71;101350.19;108042;1256;60315;-74
2023/09/05 08:58:54;;;;;;;3.80;2.00;;;;;;;24.88;34.72;101351.30;108151;1257;59971;-74
2023/09/05 09:01:21;;;;;;;3.70;2.00;;;;;;;24.92;33.99;101345.45;108586;1251;73939;-75
2023/09/05 09:03:50;;;;;;;3.20;2.00;;;;;;;24.95;33.96;101351.25;108640;1251;71558;-74
2023/09/05 09:06:24;;;;;;;4.50;2.30;;;;;;;24.99;33.94;101347.80;108356;1251;71849;-73
2023/09/05 09:08:52;;;;;;;4.00;2.10;;;;;;;25.01;33.91;101345.92;108240;1251;60450;-73
2023/09/05 09:11:19;;;;;;;4.30;2.40;;;;;;;25.06;33.23;101340.64;108318;1251;60368;-73
2023/09/05 09:13:49;;;;;;;3.50;2.10;;;;;;;25.06;32.51;101343.21;108451;1251;73804;-73
2023/09/05 09:16:20;;;;;;;5.60;2.30;;;;;;;25.02;33.02;101347.52;108173;1253;73134;-73
2023/09/05 09:18:48;;;;;;;3.40;2.10;;;;;;;25.03;33.33;101345.98;108269;1256;72111;-77
2023/09/05 09:21:16;;;;;;;3.50;2.00;;;;;;;25.04;33.47;101350.77;108286;1251;60418;-73
2023/09/05 09:24:09;;;;;;;5.20;2.30;;;;;;;24.97;32.71;101348.13;107840;1256;60370;-74
2023/09/05 09:27:11;;;;;;;4.30;2.20;;;;;;;24.97;32.35;101344.06;107351;1260;74015;-74
2023/09/05 09:30:00;;;;;;;4.20;2.50;;;;;;;25.09;30.95;101340.52;107607;1260;72680;-71
2023/09/05 09:32:50;;;;;;;4.10;2.20;;;;;;;25.25;31.92;101342.27;107794;1256;72457;-73
2023/09/05 09:35:17;;;;;;;4.50;2.00;;;;;;;25.33;32.43;101342.08;107860;1258;60320;-73
2023/09/05 09:37:47;;;;;;;7.00;2.60;;;;;;;25.40;32.41;101343.89;107900;1256;60319;-73
2023/09/05 09:40:19;;;;;;;7.10;2.40;;;;;;;25.46;32.28;101340.48;107871;1256;73752;-72
2023/09/05 09:42:49;;;;;;;5.70;2.50;;;;;;;25.49;31.70;101342.54;107962;1256;71903;-73
2023/09/05 09:45:17;;;;;;;4.30;2.30;;;;;;;25.46;31.75;101333.55;107856;1256;72634;-73
2023/09/05 09:47:49;;;;;;;5.00;2.20;;;;;;;25.40;31.79;101331.70;107873;1256;60633;-73
2023/09/05 09:50:19;;;;;;;4.60;2.30;;;;;;;25.37;32.14;101330.80;107679;1256;60686;-73
2023/09/05 09:52:48;;;;;;;5.40;3.20;;;;;;;25.41;31.46;101330.07;107822;1256;73666;-73
2023/09/05 09:55:15;;;;;;;3.60;2.50;;;;;;;25.47;31.42;101333.48;107814;1256;70444;-73
2023/09/05 09:58:04;;;;;;;5.80;2.70;;;;;;;25.54;30.69;101328.10;107877;1255;72761;-73
2023/09/05 10:00:32;;;;;;;5.30;2.30;;;;;;;25.58;30.13;101329.55;107922;1255;61061;-73
2023/09/05 10:03:00;;;;;;;5.10;2.40;;;;;;;25.64;30.40;101325.05;107927;1255;60321;-73
2023/09/05 10:05:28;;;;;;;4.30;2.70;;;;;;;25.74;30.28;101321.64;107814;1256;72666;-73
2023/09/05 10:08:36;;;;;;;5.00;2.20;;;;;;;25.84;30.02;101325.73;107774;1258;73488;-74
2023/09/05 10:11:11;;;;;;;4.20;2.30;;;;;;;25.89;29.60;101321.91;107821;1256;72520;-73
2023/09/05 10:13:38;;;;;;;4.00;2.50;;;;;;;25.89;28.26;101325.04;107835;1256;60680;-73
2023/09/05 10:16:08;;;;;;;4.20;2.20;;;;;;;25.88;27.56;101322.97;107711;1256;60607;-74
2023/09/05 10:18:38;;;;;;;4.00;2.50;;;;;;;25.87;28.02;101322.48;107791;1260;73870;-75
2023/09/05 10:21:05;;;;;;;4.10;2.30;;;;;;;25.91;27.84;101321.03;107747;1256;72423;-74
2023/09/05 10:23:33;;;;;;;4.70;2.40;;;;;;;25.92;28.41;101312.96;107890;1256;72671;-74
2023/09/05 10:26:00;;;;;;;4.60;2.40;;;;;;;25.93;28.02;101316.95;107989;1256;61200;-74
2023/09/05 10:28:27;;;;;;;4.30;2.40;;;;;;;25.91;28.05;101313.23;107997;1255;60702;-74
2023/09/05 10:31:02;;;;;;;4.10;2.10;;;;;;;25.92;28.14;101307.16;107891;1256;74014;-74
2023/09/05 10:33:36;;;;;;;3.80;2.40;;;;;;;25.99;28.73;101301.60;107945;1256;72615;-74
2023/09/05 10:36:04;;;;;;;4.80;2.30;;;;;;;26.09;28.09;101299.23;107902;1258;70513;-74
2023/09/05 10:38:36;;;;;;;4.20;2.40;;;;;;;26.16;28.15;101294.05;107996;1256;60374;-72
2023/09/05 10:41:03;;;;;;;3.80;2.30;;;;;;;26.21;28.45;101296.45;107816;1255;60423;-72
2023/09/05 10:43:30;;;;;;;4.20;2.60;;;;;;;26.25;27.67;101296.27;108039;1256;73906;-73
2023/09/05 10:46:00;;;;;;;5.40;2.30;;;;;;;26.25;27.58;101298.91;107799;1255;71671;-73
2023/09/05 10:48:38;;;;;;;4.70;2.30;;;;;;;26.25;27.39;101295.64;107831;1256;72357;-73
2023/09/05 10:51:07;;;;;;;4.00;2.50;;;;;;;26.28;27.01;101291.77;107799;1256;60355;-74
2023/09/05 10:53:49;;;;;;;5.50;2.80;;;;;;;26.29;26.49;101292.85;108035;1256;60321;-74
2023/09/05 10:56:43;;;;;;;3.60;2.30;;;;;;;26.26;26.19;101288.27;108002;1256;74004;-74
2023/09/05 10:59:31;;;;;;;3.50;2.30;;;;;;;26.29;25.49;101287.38;108001;1257;71356;-73
2023/09/05 11:02:06;;;;;;;5.20;2.20;;;;;;;26.31;25.98;101288.86;107949;1255;72716;-73
2023/09/05 11:04:34;;;;;;;4.70;2.30;;;;;;;26.31;26.24;101286.92;107971;1256;60458;-72
2023/09/05 11:07:05;;;;;;;4.50;2.40;;;;;;;26.33;26.23;101282.73;108018;1256;60530;-73
2023/09/05 11:09:44;;;;;;;4.70;2.70;;;;;;;26.35;26.16;101283.05;107962;1255;73991;-72
2023/09/05 11:12:13;;;;;;;3.60;2.40;;;;;;;26.37;25.47;101285.05;107917;1256;71389;-72
2023/09/05 11:14:40;;;;;;;5.20;2.50;;;;;;;26.35;25.80;101276.86;108293;1252;72716;-73
2023/09/05 11:17:12;;;;;;;4.70;2.60;;;;;;;26.36;25.55;101271.34;108216;1251;60310;-73
2023/09/05 11:19:42;;;;;;;5.10;2.40;;;;;;;26.39;25.71;101272.98;108225;1253;60135;-73
2023/09/05 11:22:11;;;;;;;6.10;2.90;;;;;;;26.45;25.93;101269.30;108251;1251;73708;-73
2023/09/05 11:24:45;;;;;;;6.60;2.80;;;;;;;26.51;25.68;101264.02;108191;1256;72884;-73
2023/09/05 11:27:13;;;;;;;4.20;2.50;;;;;;;26.58;25.16;101273.17;108112;1251;72495;-73
2023/09/05 11:29:41;;;;;;;5.10;2.50;;;;;;;26.62;23.64;101261.15;108245;1251;60416;-73
2023/09/05 11:32:12;;;;;;;4.10;2.20;;;;;;;26.58;23.99;101268.23;108308;1253;60341;-73
2023/09/05 11:34:41;;;;;;;6.30;2.90;;;;;;;26.59;23.78;101266.91;108178;1253;73679;-73
2023/09/05 11:37:08;;;;;;;5.10;2.80;;;;;;;26.61;24.41;101263.77;108212;1251;73257;-73
2023/09/05 11:39:35;;;;;;;5.50;2.70;;;;;;;26.65;24.61;101260.91;108116;1253;73373;-73
2023/09/05 11:42:02;;;;;;;5.30;2.70;;;;;;;26.65;25.06;101259.52;108119;1251;60323;-73
2023/09/05 11:44:31;;;;;;;5.70;2.80;;;;;;;26.68;24.86;101253.80;108133;1251;60489;-73
2023/09/05 11:46:58;;;;;;;6.50;3.00;;;;;;;26.67;24.61;101250.09;108089;1252;73713;-73
2023/09/05 12:42:38;;;;;;;4.70;2.70;;;;;;;26.92;24.01;101219.10;108043;1253;73923;-72
2023/09/05 12:45:06;;;;;;;7.80;3.10;;;;;;;26.94;23.95;101228.33;108083;1255;71878;-73
2023/09/05 12:47:33;;;;;;;3.90;2.70;;;;;;;26.91;23.99;101215.56;108060;1253;60430;-72
2023/09/05 12:50:00;;;;;;;4.60;2.80;;;;;;;26.92;23.83;101220.42;108037;1252;60323;-73
2023/09/05 12:52:42;;;;;;;4.00;2.70;;;;;;;26.94;23.44;101211.94;107959;1252;73858;-72
2023/09/05 12:55:10;;;;;;;4.30;2.90;;;;;;;26.93;23.75;101216.39;108073;1253;72748;-72
2023/09/05 12:57:39;;;;;;;4.70;3.00;;;;;;;26.92;23.92;101217.46;108015;1253;72562;-72
2023/09/05 13:00:07;;;;;;;4.80;2.50;;;;;;;26.94;24.11;101218.37;108066;1253;60395;-72
2023/09/05 13:02:35;;;;;;;4.40;2.80;;;;;;;26.98;24.13;101211.12;108046;1253;60753;-73
2023/09/05 13:05:02;;;;;;;4.40;2.80;;;;;;;27.04;23.62;101214.98;108083;1253;73915;-73
2023/09/05 13:07:30;;;;;;;4.90;2.50;;;;;;;27.06;23.55;101210.70;108125;1254;72549;-72
2023/09/05 13:09:57;;;;;;;4.40;2.70;;;;;;;27.06;23.97;101210.46;107981;1252;72727;-73
2023/09/05 13:12:24;;;;;;;4.70;2.60;;;;;;;27.08;23.62;101211.27;107941;1254;60764;-73
2023/09/05 13:14:51;;;;;;;5.30;2.80;;;;;;;27.09;24.21;101208.80;108095;1253;60159;-74
2023/09/05 13:17:18;;;;;;;7.30;5.40;;;;;;;27.14;24.22;101210.05;108079;1253;73646;-74
2023/09/05 13:19:45;;;;;;;6.80;5.10;;;;;;;27.19;23.63;101206.11;108127;1253;72642;-75
2023/09/05 13:22:12;;;;;;;5.60;3.30;;;;;;;27.22;23.55;101204.61;108044;1253;72393;-74
2023/09/05 13:24:39;;;;;;;4.90;2.90;;;;;;;27.25;23.81;101199.73;107973;1255;60408;-74
2023/09/05 16:13:44;;;;;;;4.50;3.20;;;;;;;29.05;22.84;101161.60;108112;1253;60930;-75
2023/09/05 17:05:21;;;;;;;7.50;3.30;;;;;;;22.87;34.84;101192.66;107904;1253;60445;-78
2023/09/05 18:01:32;;;;;;;7.50;4.00;;;;;;;20.48;41.61;101220.70;107962;1253;72568;-74
2023/09/05 18:03:59;;;;;;;6.60;3.70;;;;;;;20.38;41.91;101216.52;107954;1253;71971;-74
2023/09/05 18:06:26;;;;;;;6.20;4.00;;;;;;;20.32;41.73;101220.46;107879;1253;72283;-74
2023/09/05 18:08:53;;;;;;;7.00;4.30;;;;;;;20.25;41.97;101215.84;107924;1253;60472;-75
2023/09/05 18:11:21;;;;;;;7.40;4.20;;;;;;;20.20;42.09;101216.02;107922;1258;59431;-74
2023/09/05 18:13:48;;;;;;;7.40;4.10;;;;;;;20.16;42.62;101215.98;107941;1254;76376;-75
2023/09/05 18:16:15;;;;;;;8.30;4.00;;;;;;;20.10;42.95;101214.81;107895;1258;72953;-74
2023/09/05 18:18:43;;;;;;;7.80;4.30;;;;;;;20.06;43.39;101214.64;107876;1255;72537;-74
2023/09/05 18:21:10;;;;;;;7.80;4.30;;;;;;;20.00;43.63;101216.77;107866;1258;60982;-75
2023/09/05 18:23:37;;;;;;;7.60;4.10;;;;;;;19.93;43.85;101212.85;107962;1254;60391;-73
2023/09/05 18:26:08;;;;;;;6.90;4.30;;;;;;;19.86;44.60;101215.44;107987;1253;73941;-74
2023/09/05 18:28:37;;;;;;;8.00;4.10;;;;;;;19.79;44.89;101217.15;108330;1258;71370;-74
2023/09/05 18:31:07;;;;;;;8.30;4.00;;;;;;;19.73;45.50;101219.55;108209;1256;71970;-73
2023/09/05 18:33:35;;;;;;;6.70;4.30;;;;;;;19.66;45.84;101220.66;107934;1253;60481;-74
2023/09/05 18:36:02;;;;;;;7.30;4.00;;;;;;;19.60;45.79;101220.23;107858;1253;60177;-74
2023/09/05 18:38:30;;;;;;;6.20;3.90;;;;;;;19.55;45.76;101218.80;107945;1254;73674;-74
2023/09/05 18:40:58;;;;;;;6.30;3.60;;;;;;;19.51;46.06;101221.39;107952;1253;73272;-75
2023/09/05 18:43:30;;;;;;;7.50;4.00;;;;;;;19.43;46.59;101219.07;107981;1254;72495;-73
2023/09/05 18:45:57;;;;;;;7.60;4.40;;;;;;;19.36;47.37;101222.30;107863;1254;60402;-76
2023/09/05 18:48:25;;;;;;;6.70;4.00;;;;;;;19.30;48.20;101226.41;108067;1254;60398;-74
2023/09/05 18:50:53;;;;;;;7.20;3.80;;;;;;;19.23;48.69;101226.66;107890;1254;73137;-75
2023/09/05 18:53:20;;;;;;;8.30;4.40;;;;;;;19.14;49.13;101225.35;107999;1253;71699;-73
2023/09/05 18:55:47;;;;;;;6.70;4.50;;;;;;;19.06;49.68;101225.40;107920;1253;71481;-73
2023/09/05 18:58:15;;;;;;;6.40;4.40;;;;;;;18.98;50.21;101230.67;108819;1256;60306;-73
2023/09/05 19:00:44;;;;;;;8.50;4.60;;;;;;;18.90;50.68;101234.92;107919;1253;59487;-74
2023/09/05 19:03:14;;;;;;;9.50;4.80;;;;;;;18.81;51.42;101233.67;107934;1254;74682;-74
2023/09/05 19:05:41;;;;;;;7.30;4.40;;;;;;;18.73;51.89;101236.98;107921;1253;71429;-74
2023/09/05 19:08:08;;;;;;;8.00;5.20;;;;;;;18.66;52.40;101239.34;107908;1254;72889;-73
2023/09/05 19:10:39;;;;;;;8.90;4.90;;;;;;;18.60;52.99;101239.71;107691;1258;61934;-74
2023/09/05 19:13:06;;;;;;;9.10;5.70;;;;;;;18.50;53.53;101240.17;107660;1258;60658;-73
2023/09/05 19:15:38;;;;;;;8.40;5.20;;;;;;;18.44;53.92;101238.70;107950;1254;73635;-73
2023/09/05 19:18:06;;;;;;;9.80;5.80;;;;;;;18.38;54.31;101241.16;107725;1255;72865;-72
2023/09/05 19:20:32;;;;;;;9.80;6.00;;;;;;;18.32;54.72;101242.43;107873;1257;72984;-73
2023/09/05 19:22:59;;;;;;;15.90;7.20;;;;;;;18.29;55.08;101245.83;108164;1257;60488;-73
2023/09/05 19:25:26;;;;;;;9.20;6.00;;;;;;;18.27;55.59;101243.75;107787;1254;60210;-73
2023/09/05 19:27:53;;;;;;;11.30;6.50;;;;;;;18.24;55.88;101238.88;107688;1253;74613;-74
2023/09/05 19:30:20;;;;;;;11.30;6.70;;;;;;;18.22;56.12;101237.98;107811;1257;72836;-73
2023/09/05 19:32:47;;;;;;;12.40;7.20;;;;;;;18.19;56.33;101238.50;107838;1257;72671;-73
2023/09/05 19:35:15;;;;;;;12.20;6.50;;;;;;;18.14;56.48;101233.38;107699;1258;62850;-73
2023/09/05 19:37:42;;;;;;;13.10;7.70;;;;;;;18.11;56.76;101233.91;107904;1253;58994;-72
2023/09/05 19:40:09;;;;;;;11.80;7.40;;;;;;;18.07;56.94;101232.02;107886;1257;73873;-73
2023/09/05 19:42:36;;;;;;;8.30;6.10;;;;;;;18.03;57.21;101234.48;108239;1253;72478;-75
2023/09/05 19:45:04;;;;;;;12.20;7.70;;;;;;;17.96;57.64;101236.05;107934;1257;71230;-76
2023/09/05 19:47:33;;;;;;;12.40;7.30;;;;;;;17.89;58.13;101233.54;107915;1254;61679;-77
2023/09/05 19:50:00;;;;;;;10.10;7.30;;;;;;;17.88;58.30;101236.43;107904;1253;60341;-77
2023/09/05 19:52:28;;;;;;;12.90;7.50;;;;;;;17.87;58.83;101236.76;107991;1254;73888;-77
2023/09/05 19:54:55;;;;;;;12.70;7.00;;;;;;;17.86;59.22;101236.27;107953;1256;72468;-76
2023/09/05 19:57:22;;;;;;;12.10;7.40;;;;;;;17.86;59.53;101235.41;107908;1255;72699;-76
2023/09/05 19:59:50;;;;;;;9.80;6.90;;;;;;;17.85;59.65;101233.58;107980;1258;61933;-77
2023/09/05 20:02:28;;;;;;;9.50;6.30;;;;;;;17.86;59.87;101233.04;107966;1254;60412;-78
2023/09/05 20:04:55;;;;;;;11.30;6.40;;;;;;;17.84;60.19;101237.19;107942;1255;73715;-78
2023/09/05 20:07:22;;;;;;;10.40;6.30;;;;;;;17.81;60.27;101232.39;108005;1254;72406;-77
2023/09/05 20:09:50;;;;;;;9.80;5.60;;;;;;;17.78;60.31;101233.95;108069;1257;71547;-75
2023/09/05 20:12:17;;;;;;;7.70;4.90;;;;;;;17.73;60.50;101237.05;107939;1254;59330;-75
2023/09/05 20:14:44;;;;;;;7.50;4.70;;;;;;;17.72;60.79;101239.88;107996;1253;60291;-77
2023/09/05 20:17:13;;;;;;;9.70;5.60;;;;;;;17.71;61.03;101237.99;107903;1254;73906;-77
2023/09/05 20:19:40;;;;;;;10.30;5.70;;;;;;;17.70;61.27;101237.85;107968;1257;72609;-75